createdAt,value
2022-09-16T00:01:36.257Z,84.26
2022-09-16T00:04:02.841Z,85.27
2022-09-16T00:06:30.257Z,84.78
2022-09-16T00:09:00.873Z,83.94
2022-09-16T00:11:27.956Z,84.20
2022-09-16T00:13:54.495Z,83.67
2022-09-16T00:16:24.586Z,83.86
2022-09-16T00:19:00.676Z,83.80
2022-09-16T00:21:28.533Z,83.73
2022-09-16T00:23:58.128Z,83.03
2022-09-16T00:26:24.682Z,82.90
2022-09-16T00:28:51.469Z,82.20
2022-09-16T00:31:18.298Z,81.94
2022-09-16T00:33:44.893Z,82.33
2022-09-16T00:36:20.424Z,80.98
2022-09-16T00:38:51.358Z,80.92
2022-09-16T00:41:19.809Z,80.98
2022-09-16T00:43:58.499Z,82.33
2022-09-16T00:46:51.156Z,81.76
2022-09-16T00:49:26.305Z,81.42
2022-09-16T00:51:57.300Z,81.89
2022-09-16T00:54:24.485Z,81.57
2022-09-16T00:56:54.672Z,82.09
2022-09-16T00:59:28.277Z,81.62
2022-09-16T01:01:56.743Z,81.53
2022-09-16T01:04:29.566Z,81.36
2022-09-16T01:06:56.904Z,82.45
2022-09-16T01:09:25.801Z,81.76
2022-09-16T01:11:52.443Z,81.77
2022-09-16T01:14:39.509Z,82.68
2022-09-16T01:17:46.507Z,82.14
2022-09-16T01:20:41.359Z,83.18
2022-09-16T01:23:29.622Z,83.44
2022-09-16T01:26:08.147Z,84.04
2022-09-16T01:29:04.735Z,84.56
2022-09-16T01:31:42.003Z,84.16
2022-09-16T01:34:25.865Z,83.77
2022-09-16T01:37:06.453Z,83.89
2022-09-16T01:39:40.783Z,84.33
2022-09-16T01:42:20.914Z,84.39
2022-09-16T01:44:52.505Z,84.29
2022-09-16T01:47:49.463Z,84.66
2022-09-16T01:50:32.148Z,84.28
2022-09-16T01:53:10.575Z,84.87
2022-09-16T01:55:42.107Z,84.72
2022-09-16T01:58:25.178Z,84.29
2022-09-16T02:00:56.146Z,84.60
2022-09-16T02:03:32.130Z,84.76
2022-09-16T02:06:06.051Z,85.06
2022-09-16T02:08:38.474Z,85.33
2022-09-16T02:11:08.932Z,85.76
2022-09-16T02:13:39.610Z,85.17
2022-09-16T02:16:12.445Z,85.20
2022-09-16T02:18:42.393Z,85.60
2022-09-16T02:21:14.399Z,85.67
2022-09-16T02:23:48.812Z,85.58
2022-09-16T02:26:18.679Z,85.90
2022-09-16T02:28:49.293Z,86.41
2022-09-16T02:31:17.439Z,86.25
2022-09-16T02:33:47.781Z,86.46
2022-09-16T02:36:19.510Z,86.52
2022-09-16T02:38:50.319Z,86.96
2022-09-16T02:41:16.820Z,86.74
2022-09-16T02:43:45.221Z,86.83
2022-09-16T02:46:29.278Z,87.17
2022-09-16T02:49:06.175Z,87.74
2022-09-16T02:51:43.019Z,87.98
2022-09-16T02:54:20.372Z,87.42
2022-09-16T02:56:47.304Z,88.29
2022-09-16T02:59:16.058Z,88.53
2022-09-16T03:01:45.099Z,88.78
2022-09-16T03:04:14.396Z,88.82
2022-09-16T03:06:41.479Z,89.30
2022-09-16T03:09:13.235Z,89.12
2022-09-16T03:11:51.730Z,88.83
2022-09-16T03:14:55.759Z,88.86
2022-09-16T03:18:03.650Z,89.43
2022-09-16T03:20:54.866Z,89.30
2022-09-16T03:23:29.958Z,89.65
2022-09-16T03:26:23.758Z,89.05
2022-09-16T03:29:07.522Z,89.07
2022-09-16T03:31:59.536Z,88.99
2022-09-16T03:34:35.931Z,89.15
2022-09-16T03:37:09.247Z,89.08
2022-09-16T03:39:36.634Z,89.28
2022-09-16T03:42:06.000Z,89.57
2022-09-16T03:44:35.211Z,89.80
2022-09-16T03:47:02.711Z,89.49
2022-09-16T03:49:30.381Z,89.82
2022-09-16T03:51:58.056Z,89.87
2022-09-16T03:54:24.898Z,89.83
2022-09-16T03:56:51.299Z,89.93
2022-09-16T03:59:17.772Z,90.46
2022-09-16T04:01:45.345Z,91.46
2022-09-16T04:04:12.314Z,90.44
2022-09-16T04:06:39.103Z,90.74
2022-09-16T04:09:07.081Z,91.38
2022-09-16T04:11:35.013Z,91.56
2022-09-16T04:14:01.655Z,91.59
2022-09-16T04:16:28.246Z,91.38
2022-09-16T04:18:54.651Z,91.98
2022-09-16T04:21:21.015Z,91.73
2022-09-16T04:23:48.466Z,92.05
2022-09-16T04:26:15.550Z,92.21
2022-09-16T04:28:41.998Z,92.30
2022-09-16T04:31:11.813Z,92.22
2022-09-16T04:33:38.761Z,92.44
2022-09-16T04:36:08.559Z,92.68
2022-09-16T04:38:36.412Z,92.23
2022-09-16T04:41:05.474Z,92.90
2022-09-16T04:43:32.059Z,93.44
2022-09-16T04:45:58.493Z,92.78
2022-09-16T04:48:25.404Z,92.39
2022-09-16T04:50:53.064Z,91.82
2022-09-16T04:53:22.253Z,91.92
2022-09-16T04:55:48.704Z,91.68
2022-09-16T04:58:15.047Z,92.20
2022-09-16T05:00:41.482Z,92.74
2022-09-16T05:03:08.006Z,92.55
2022-09-16T05:05:34.478Z,93.01
2022-09-16T05:08:00.938Z,93.01
2022-09-16T05:10:28.494Z,93.41
2022-09-16T05:12:55.096Z,92.81
2022-09-16T05:15:21.450Z,93.06
2022-09-16T05:17:51.206Z,93.19
2022-09-16T05:20:18.022Z,93.49
2022-09-16T05:22:44.466Z,93.90
2022-09-16T05:25:10.798Z,93.51
2022-09-16T05:27:37.253Z,93.16
2022-09-16T05:30:04.067Z,94.23
2022-09-16T05:32:30.988Z,93.95
2022-09-16T05:34:57.638Z,93.82
2022-09-16T05:37:24.039Z,93.64
2022-09-16T05:39:50.485Z,93.94
2022-09-16T05:42:16.839Z,94.31
2022-09-16T05:44:43.176Z,94.39
2022-09-16T05:47:09.523Z,94.71
2022-09-16T05:49:37.061Z,95.08
2022-09-16T05:52:03.527Z,94.46
2022-09-16T05:54:31.355Z,94.90
2022-09-16T05:56:57.761Z,95.27
2022-09-16T05:59:24.187Z,95.35
2022-09-16T06:01:50.688Z,95.63
2022-09-16T06:04:17.170Z,95.62
2022-09-16T06:06:45.845Z,95.71
2022-09-16T06:09:20.975Z,96.26
2022-09-16T06:11:50.206Z,97.09
2022-09-16T06:14:18.313Z,96.39
2022-09-16T06:16:45.192Z,95.83
2022-09-16T06:19:14.464Z,95.07
2022-09-16T06:21:43.619Z,95.20
2022-09-16T06:24:10.764Z,94.08
2022-09-16T06:26:39.885Z,93.62
2022-09-16T06:29:07.060Z,93.52
2022-09-16T06:31:36.091Z,93.56
2022-09-16T06:34:02.565Z,92.54
2022-09-16T06:36:32.539Z,91.81
2022-09-16T06:38:59.164Z,92.19
2022-09-16T06:41:25.815Z,91.74
2022-09-16T06:43:52.659Z,92.09
2022-09-16T06:46:22.118Z,91.70
2022-09-16T06:48:50.874Z,91.07
2022-09-16T06:51:19.855Z,90.21
2022-09-16T06:53:46.805Z,90.29
2022-09-16T06:56:16.379Z,90.49
2022-09-16T06:58:44.947Z,90.00
2022-09-16T07:01:23.503Z,90.44
2022-09-16T07:03:52.454Z,90.71
2022-09-16T07:06:20.403Z,90.49
2022-09-16T07:08:47.198Z,88.97
2022-09-16T07:11:19.307Z,88.56
2022-09-16T07:13:47.294Z,88.66
2022-09-16T07:16:24.942Z,88.75
2022-09-16T07:19:01.075Z,88.33
2022-09-16T07:21:30.130Z,87.16
2022-09-16T07:24:01.458Z,86.98
2022-09-16T07:26:29.327Z,85.83
2022-09-16T07:28:58.287Z,85.15
2022-09-16T07:31:26.867Z,82.45
2022-09-16T07:33:58.971Z,82.29
2022-09-16T07:36:30.682Z,82.67
2022-09-16T07:38:58.486Z,82.30
2022-09-16T07:41:30.271Z,82.21
2022-09-16T07:43:59.192Z,81.24
2022-09-16T07:46:28.144Z,80.88
2022-09-16T07:48:55.417Z,80.59
2022-09-16T07:51:24.107Z,80.77
2022-09-16T07:53:55.203Z,80.15
2022-09-16T07:56:25.319Z,77.63
2022-09-16T07:58:52.882Z,76.72
2022-09-16T08:01:19.495Z,77.76
2022-09-16T08:03:47.137Z,78.55
2022-09-16T08:06:16.874Z,78.19
2022-09-16T08:08:44.360Z,77.38
2022-09-16T08:11:12.396Z,76.94
2022-09-16T08:13:39.718Z,77.46
2022-09-16T08:16:08.612Z,78.14
2022-09-16T08:18:35.071Z,78.63
2022-09-16T08:21:13.782Z,79.48
2022-09-16T08:23:40.890Z,77.30
2022-09-16T08:26:09.607Z,78.07
2022-09-16T08:28:50.933Z,79.35
2022-09-16T08:31:18.929Z,79.21
2022-09-16T08:33:46.201Z,78.86
2022-09-16T08:36:15.191Z,79.10
2022-09-16T08:38:43.779Z,78.66
2022-09-16T08:41:13.109Z,79.04
2022-09-16T08:43:45.562Z,76.51
2022-09-16T08:46:30.868Z,76.21
2022-09-16T08:49:19.969Z,75.13
2022-09-16T08:51:46.801Z,75.08
2022-09-16T08:54:25.776Z,75.99
2022-09-16T08:56:54.883Z,73.04
2022-09-16T08:59:27.571Z,72.62
2022-09-16T09:02:24.374Z,72.60
2022-09-16T09:04:51.135Z,73.07
2022-09-16T09:07:55.738Z,74.35
2022-09-16T09:10:27.639Z,73.83
2022-09-16T09:13:22.204Z,74.66
2022-09-16T09:16:00.769Z,74.21
2022-09-16T09:18:45.090Z,76.11
2022-09-16T09:21:36.758Z,76.11
2022-09-16T09:24:17.355Z,76.73
2022-09-16T09:26:52.365Z,77.03
2022-09-16T09:29:33.890Z,76.76
2022-09-16T09:32:13.287Z,76.47
2022-09-16T09:35:16.420Z,76.15
2022-09-16T09:38:12.048Z,74.61
2022-09-16T09:40:50.947Z,74.13
2022-09-16T09:46:12.228Z,73.16
2022-09-16T09:48:44.705Z,74.16
2022-09-16T09:51:22.616Z,73.65
2022-09-16T09:53:56.659Z,73.46
2022-09-16T09:56:37.604Z,75.93
2022-09-16T09:59:25.186Z,75.83
2022-09-16T10:01:59.032Z,73.76
2022-09-16T10:04:25.470Z,72.01
2022-09-16T10:06:54.266Z,71.11
2022-09-16T10:09:22.411Z,71.67
2022-09-16T10:11:54.977Z,67.80
2022-09-16T10:14:32.927Z,66.23
2022-09-16T10:17:02.956Z,65.80
2022-09-16T10:19:33.869Z,63.70
2022-09-16T10:22:23.948Z,63.39
2022-09-16T10:24:59.208Z,66.36
2022-09-16T10:27:35.883Z,67.94
2022-09-16T10:30:17.427Z,69.26
2022-09-16T10:32:46.968Z,75.31
2022-09-16T10:35:25.646Z,82.04
2022-09-16T10:37:55.217Z,83.80
2022-09-16T10:40:23.881Z,85.41
2022-09-16T10:42:53.099Z,85.88
2022-09-16T10:45:28.553Z,87.82
2022-09-16T10:48:00.967Z,86.69
2022-09-16T10:50:31.190Z,85.14
2022-09-16T10:52:57.621Z,83.84
2022-09-16T10:55:38.498Z,82.38
2022-09-16T10:58:10.069Z,79.88
2022-09-16T11:00:49.582Z,80.19
2022-09-16T11:03:32.696Z,80.94
2022-09-16T11:06:32.025Z,80.66
2022-09-16T11:09:30.639Z,80.21
2022-09-16T11:12:28.847Z,82.40
2022-09-16T11:15:38.215Z,83.13
2022-09-16T11:18:21.263Z,82.70
2022-09-16T11:21:02.881Z,81.30
2022-09-16T11:23:53.706Z,81.46
2022-09-16T11:26:26.771Z,80.12
2022-09-16T11:29:15.245Z,83.39
2022-09-16T11:31:47.639Z,78.45
2022-09-16T11:34:26.784Z,80.73
2022-09-16T11:37:11.855Z,74.15
2022-09-16T11:39:46.653Z,76.12
2022-09-16T11:42:34.916Z,72.72
2022-09-16T11:45:36.491Z,72.48
2022-09-16T11:48:21.365Z,68.91
2022-09-16T11:51:20.066Z,70.72
2022-09-16T11:54:02.200Z,69.17
2022-09-16T11:56:52.204Z,67.71
2022-09-16T11:59:24.496Z,61.73
2022-09-16T12:01:53.603Z,63.88
2022-09-16T12:04:37.604Z,65.59
2022-09-16T12:07:17.245Z,65.99
2022-09-16T12:09:56.910Z,65.96
2022-09-16T12:12:29.498Z,66.66
2022-09-16T12:15:05.417Z,66.71
2022-09-16T12:17:36.734Z,66.34
2022-09-16T12:20:18.667Z,66.36
2022-09-16T12:22:54.503Z,68.18
2022-09-16T12:25:35.277Z,68.70
2022-09-16T12:28:12.645Z,68.47
2022-09-16T12:30:45.096Z,69.07
2022-09-16T12:33:20.707Z,69.38
2022-09-16T12:36:10.670Z,65.51
2022-09-16T12:38:37.171Z,65.49
2022-09-16T12:41:06.563Z,65.93
2022-09-16T12:43:48.254Z,63.62
2022-09-16T12:46:42.896Z,64.04
2022-09-16T12:49:28.136Z,62.42
2022-09-16T12:52:26.689Z,62.93
2022-09-16T12:55:09.040Z,61.76
2022-09-16T12:57:59.172Z,63.09
2022-09-16T13:00:40.379Z,58.75
2022-09-16T13:03:10.460Z,61.81
2022-09-16T13:05:38.922Z,61.09
2022-09-16T13:08:18.782Z,59.73
2022-09-16T13:10:56.289Z,60.51
2022-09-16T13:13:35.134Z,60.33
2022-09-16T13:16:05.261Z,57.70
2022-09-16T13:18:46.464Z,59.14
2022-09-16T13:21:22.864Z,60.17
2022-09-16T13:24:00.181Z,58.44
2022-09-16T13:26:38.903Z,59.74
2022-09-16T13:29:24.753Z,58.27
2022-09-16T13:31:51.512Z,58.53
2022-09-16T13:34:18.894Z,59.61
2022-09-16T13:36:45.310Z,58.48
2022-09-16T13:39:15.406Z,60.16
2022-09-16T13:41:47.536Z,60.66
2022-09-16T13:44:37.195Z,58.84
2022-09-16T13:47:09.554Z,60.36
2022-09-16T13:49:45.101Z,60.85
2022-09-16T13:52:16.457Z,62.15
2022-09-16T13:55:09.321Z,61.32
2022-09-16T13:57:48.295Z,62.41
2022-09-16T14:00:22.871Z,61.49
2022-09-16T14:03:07.668Z,60.25
2022-09-16T14:06:01.954Z,59.88
2022-09-16T14:08:57.873Z,60.01
2022-09-16T14:12:03.786Z,61.03
2022-09-16T14:14:48.592Z,61.92
2022-09-16T14:17:23.588Z,61.21
2022-09-16T14:19:56.075Z,59.62
2022-09-16T14:22:25.593Z,58.97
2022-09-16T14:25:00.782Z,59.34
2022-09-16T14:27:36.603Z,59.99
2022-09-16T14:30:14.139Z,60.89
2022-09-16T14:32:41.061Z,62.98
2022-09-16T14:35:17.911Z,62.74
2022-09-16T14:37:47.362Z,65.77
2022-09-16T14:40:16.924Z,65.89
2022-09-16T14:42:57.071Z,65.61
2022-09-16T14:45:23.913Z,66.14
2022-09-16T14:47:54.013Z,66.45
2022-09-16T14:50:30.722Z,65.70
2022-09-16T14:53:02.643Z,66.78
2022-09-16T14:55:31.394Z,66.33
2022-09-16T14:57:58.619Z,67.55
2022-09-16T15:00:30.993Z,68.88
2022-09-16T15:03:06.006Z,69.62
2022-09-16T15:05:35.166Z,72.17
2022-09-16T15:08:15.933Z,74.10
2022-09-16T15:10:52.308Z,74.35
2022-09-16T15:13:22.692Z,73.79
2022-09-16T15:15:56.100Z,73.32
2022-09-16T15:18:28.376Z,74.23
2022-09-16T15:21:02.296Z,72.29
2022-09-16T15:23:29.168Z,74.38
2022-09-16T15:26:16.330Z,75.05
2022-09-16T15:28:55.479Z,75.12
2022-09-16T15:31:29.547Z,73.46
2022-09-16T15:33:58.128Z,73.00
2022-09-16T15:36:41.059Z,75.61
2022-09-16T15:39:29.311Z,73.65
2022-09-16T15:42:10.926Z,73.97
2022-09-16T15:44:42.958Z,73.49
2022-09-16T15:47:21.623Z,72.68
2022-09-16T15:49:53.959Z,73.37
2022-09-16T15:52:20.799Z,73.21
2022-09-16T15:55:02.932Z,72.76
2022-09-16T15:57:38.801Z,73.17
2022-09-16T16:00:16.070Z,74.21
2022-09-16T16:03:01.709Z,72.69
2022-09-16T16:05:31.116Z,72.21
2022-09-16T16:08:00.165Z,71.77
2022-09-16T16:10:36.478Z,69.95
2022-09-16T16:13:04.542Z,69.37
2022-09-16T16:15:35.588Z,70.06
2022-09-16T16:18:05.729Z,66.90
2022-09-16T16:20:34.648Z,67.44
2022-09-16T16:23:01.927Z,68.70
2022-09-16T16:25:28.737Z,68.88
2022-09-16T16:27:55.147Z,70.79
2022-09-16T16:30:21.502Z,69.52
2022-09-16T16:32:48.606Z,70.16
2022-09-16T16:35:15.125Z,70.83
2022-09-16T16:37:46.386Z,71.00
2022-09-16T16:40:14.058Z,70.40
2022-09-16T16:42:42.983Z,69.32
2022-09-16T16:45:10.688Z,69.02
2022-09-16T16:47:37.053Z,68.66
2022-09-16T16:50:03.647Z,69.15
2022-09-16T16:52:30.007Z,68.13
2022-09-16T16:54:56.353Z,68.92
2022-09-16T16:57:22.757Z,68.49
2022-09-16T16:59:49.097Z,67.83
2022-09-16T17:02:15.701Z,67.36
2022-09-16T17:04:42.348Z,67.44
2022-09-16T17:07:25.080Z,69.49
2022-09-16T17:09:52.507Z,69.43
2022-09-16T17:12:18.923Z,68.51
2022-09-16T17:14:45.602Z,69.11
2022-09-16T17:17:11.949Z,70.29
2022-09-16T17:19:38.450Z,70.54
2022-09-16T17:22:04.843Z,72.46
2022-09-16T17:24:31.238Z,71.15
2022-09-16T17:26:57.585Z,71.27
2022-09-16T17:29:24.169Z,71.25
2022-09-16T17:31:50.574Z,71.20
2022-09-16T17:34:16.978Z,72.19
2022-09-16T17:36:45.626Z,73.58
2022-09-16T17:39:17.794Z,72.19
2022-09-16T17:41:46.030Z,72.35
2022-09-16T17:44:13.926Z,73.38
2022-09-16T17:46:42.344Z,72.50
2022-09-16T17:49:15.998Z,72.61
2022-09-16T17:51:43.181Z,72.97
2022-09-16T17:54:10.243Z,73.39
2022-09-16T17:56:36.735Z,73.39
2022-09-16T17:59:03.504Z,73.10
2022-09-16T18:01:30.733Z,74.40
2022-09-16T18:03:57.684Z,74.32
2022-09-16T18:06:28.256Z,74.10
2022-09-16T18:08:54.980Z,74.16
2022-09-16T18:11:22.181Z,73.95
2022-09-16T18:13:54.380Z,73.61
2022-09-16T18:16:21.950Z,73.27
2022-09-16T18:18:53.720Z,73.03
2022-09-16T18:21:21.457Z,72.65
2022-09-16T18:23:50.777Z,73.03
2022-09-16T18:26:18.668Z,73.82
2022-09-16T18:29:08.694Z,74.20
2022-09-16T18:31:33.846Z,74.40
2022-09-16T18:34:00.191Z,74.66
2022-09-16T18:36:29.818Z,74.59
2022-09-16T18:38:57.663Z,75.14
2022-09-16T18:41:26.948Z,74.79
2022-09-16T18:43:56.286Z,75.39
2022-09-16T18:46:26.872Z,75.26
2022-09-16T18:48:54.631Z,75.27
2022-09-16T18:51:26.531Z,74.30
2022-09-16T18:54:00.523Z,74.42
2022-09-16T18:56:28.508Z,74.25
2022-09-16T18:59:20.403Z,74.69
2022-09-16T19:01:48.595Z,74.72
2022-09-16T19:04:18.875Z,74.03
2022-09-16T19:06:48.751Z,74.86
2022-09-16T19:09:18.943Z,74.93
2022-09-16T19:11:45.376Z,74.39
2022-09-16T19:14:13.831Z,74.69
2022-09-16T19:16:42.158Z,73.77
2022-09-16T19:19:12.101Z,74.37
2022-09-16T19:21:38.801Z,73.42
2022-09-16T19:24:07.961Z,73.84
2022-09-16T19:26:37.759Z,73.31
2022-09-16T19:29:06.719Z,73.64
2022-09-16T19:31:35.348Z,74.09
2022-09-16T19:34:01.787Z,72.94
2022-09-16T19:36:30.610Z,73.26
2022-09-16T19:38:57.708Z,73.14
2022-09-16T19:41:28.346Z,72.84
2022-09-16T19:44:00.733Z,73.73
2022-09-16T19:46:28.416Z,73.41
2022-09-16T19:48:55.145Z,73.77
2022-09-16T19:51:23.725Z,75.01
2022-09-16T19:53:51.420Z,74.06
2022-09-16T19:56:23.793Z,74.47
2022-09-16T19:58:51.158Z,74.37
2022-09-16T20:01:20.618Z,73.97
2022-09-16T20:03:49.238Z,74.73
2022-09-16T20:06:19.308Z,74.63
2022-09-16T20:08:48.273Z,74.52
2022-09-16T20:11:19.864Z,74.96
2022-09-16T20:13:49.526Z,74.71
2022-09-16T20:16:17.516Z,75.08
2022-09-16T20:18:44.184Z,74.96
2022-09-16T20:21:16.991Z,75.96
2022-09-16T20:23:44.990Z,76.17
2022-09-16T20:26:14.859Z,75.65
2022-09-16T20:28:43.277Z,75.92
2022-09-16T20:31:12.163Z,75.28
2022-09-16T20:33:39.410Z,76.28
2022-09-16T20:36:10.458Z,76.53
2022-09-16T20:38:38.315Z,76.73
2022-09-16T20:41:10.126Z,76.93
2022-09-16T20:43:37.158Z,77.45
2022-09-16T20:46:28.156Z,77.10
2022-09-16T20:48:55.995Z,76.67
2022-09-16T20:51:25.384Z,76.45
2022-09-16T20:53:59.659Z,77.17
2022-09-16T20:56:32.558Z,78.38
2022-09-16T20:59:03.876Z,77.87
2022-09-16T21:01:33.595Z,78.30
2022-09-16T21:04:05.705Z,78.18
2022-09-16T21:06:34.879Z,78.37
2022-09-16T21:09:05.356Z,77.65
2022-09-16T21:11:33.128Z,78.41
2022-09-16T21:14:06.370Z,78.49
2022-09-16T21:16:34.188Z,78.51
2022-09-16T21:19:03.116Z,78.77
2022-09-16T21:21:30.384Z,78.22
2022-09-16T21:23:59.074Z,78.01
2022-09-16T21:26:31.009Z,79.63
2022-09-16T21:29:02.476Z,78.40
2022-09-16T21:31:33.228Z,77.72
2022-09-16T21:34:02.206Z,78.01
2022-09-16T21:36:29.130Z,78.29
2022-09-16T21:38:55.953Z,77.45
2022-09-16T21:41:23.926Z,78.81
2022-09-16T21:43:55.384Z,78.80
2022-09-16T21:46:28.054Z,78.86
2022-09-16T21:49:01.233Z,80.02
2022-09-16T21:51:35.193Z,79.59
2022-09-16T21:54:03.191Z,79.98
2022-09-16T21:56:30.157Z,80.49
2022-09-16T21:58:58.222Z,80.53
2022-09-16T22:01:27.857Z,79.82
2022-09-16T22:03:57.280Z,80.12
2022-09-16T22:06:25.545Z,79.74
2022-09-16T22:08:56.351Z,80.17
2022-09-16T22:11:24.714Z,80.68
2022-09-16T22:13:52.835Z,79.71
2022-09-16T22:16:28.356Z,81.01
2022-09-16T22:19:17.538Z,79.87
2022-09-16T22:21:46.423Z,80.52
2022-09-16T22:24:13.559Z,81.24
2022-09-16T22:26:40.239Z,81.58
2022-09-16T22:29:08.853Z,81.65
2022-09-16T22:31:37.729Z,80.23
2022-09-16T22:34:04.430Z,80.28
2022-09-16T22:36:33.058Z,79.84
2022-09-16T22:39:02.080Z,79.99
2022-09-16T22:41:29.151Z,79.24
2022-09-16T22:43:55.835Z,79.46
2022-09-16T22:46:28.066Z,80.22
2022-09-16T22:48:55.763Z,80.98
2022-09-16T22:51:22.526Z,81.28
2022-09-16T22:53:49.552Z,81.82
2022-09-16T22:56:21.836Z,82.42
2022-09-16T22:58:55.481Z,81.32
2022-09-16T23:01:24.718Z,81.56
2022-09-16T23:03:54.001Z,83.47
2022-09-16T23:06:21.325Z,83.49
2022-09-16T23:08:48.051Z,82.65
2022-09-16T23:11:17.015Z,83.31
2022-09-16T23:13:45.199Z,82.61
2022-09-16T23:16:17.869Z,83.26
2022-09-16T23:18:45.510Z,82.89
2022-09-16T23:21:14.450Z,82.67
2022-09-16T23:23:43.341Z,82.66
2022-09-16T23:26:15.801Z,82.78
2022-09-16T23:28:42.844Z,82.40
2022-09-16T23:31:12.472Z,82.91
2022-09-16T23:33:39.887Z,83.30
2022-09-16T23:36:07.576Z,82.70
2022-09-16T23:38:35.758Z,82.72
2022-09-16T23:41:07.973Z,84.37
2022-09-16T23:43:34.376Z,83.73
2022-09-16T23:46:02.008Z,84.06
2022-09-16T23:48:29.646Z,83.52
2022-09-16T23:50:56.418Z,83.55
2022-09-16T23:53:22.903Z,82.58
2022-09-16T23:55:49.699Z,83.31
2022-09-16T23:58:16.511Z,83.49
